sensor_id;sensor_type;location;lat;lon;timestamp;P1;durP1;ratioP1;P2;durP2;ratioP2
69900;SDS011;57183;50.930;5.406;2023-01-28T00:00:04;5.15;;;4.65;;
69900;SDS011;57183;50.930;5.406;2023-01-28T00:02:36;5.40;;;4.82;;
69900;SDS011;57183;50.930;5.406;2023-01-28T00:05:02;5.40;;;4.60;;
69900;SDS011;57183;50.930;5.406;2023-01-28T00:07:28;7.63;;;6.00;;
69900;SDS011;57183;50.930;5.406;2023-01-28T00:09:54;5.88;;;5.10;;
69900;SDS011;57183;50.930;5.406;2023-01-28T00:12:20;5.68;;;5.03;;
69900;SDS011;57183;50.930;5.406;2023-01-28T00:14:45;7.05;;;6.10;;
69900;SDS011;57183;50.930;5.406;2023-01-28T00:17:12;6.03;;;5.38;;
69900;SDS011;57183;50.930;5.406;2023-01-28T00:19:38;6.38;;;5.75;;
69900;SDS011;57183;50.930;5.406;2023-01-28T00:22:04;6.53;;;5.18;;
69900;SDS011;57183;50.930;5.406;2023-01-28T00:24:29;6.22;;;5.63;;
69900;SDS011;57183;50.930;5.406;2023-01-28T00:26:55;4.80;;;4.15;;
69900;SDS011;57183;50.930;5.406;2023-01-28T00:29:21;8.20;;;5.88;;
69900;SDS011;57183;50.930;5.406;2023-01-28T00:31:47;7.65;;;5.32;;
69900;SDS011;57183;50.930;5.406;2023-01-28T00:34:12;7.15;;;5.88;;
69900;SDS011;57183;50.930;5.406;2023-01-28T00:36:38;6.78;;;5.72;;
69900;SDS011;57183;50.930;5.406;2023-01-28T00:39:04;7.65;;;5.80;;
69900;SDS011;57183;50.930;5.406;2023-01-28T00:41:30;7.57;;;5.68;;
69900;SDS011;57183;50.930;5.406;2023-01-28T00:43:56;9.80;;;6.63;;
69900;SDS011;57183;50.930;5.406;2023-01-28T00:46:23;6.80;;;5.28;;
69900;SDS011;57183;50.930;5.406;2023-01-28T00:48:52;6.53;;;5.32;;
69900;SDS011;57183;50.930;5.406;2023-01-28T00:51:18;7.50;;;6.05;;
69900;SDS011;57183;50.930;5.406;2023-01-28T00:53:44;8.85;;;6.10;;
69900;SDS011;57183;50.930;5.406;2023-01-28T00:56:12;8.52;;;6.53;;
69900;SDS011;57183;50.930;5.406;2023-01-28T00:58:39;9.43;;;6.70;;
69900;SDS011;57183;50.930;5.406;2023-01-28T01:01:09;8.68;;;6.32;;
69900;SDS011;57183;50.930;5.406;2023-01-28T01:03:39;11.23;;;7.55;;
69900;SDS011;57183;50.930;5.406;2023-01-28T01:06:05;11.25;;;8.23;;
69900;SDS011;57183;50.930;5.406;2023-01-28T01:08:33;10.68;;;7.85;;
69900;SDS011;57183;50.930;5.406;2023-01-28T01:11:02;10.20;;;7.72;;
69900;SDS011;57183;50.930;5.406;2023-01-28T01:13:29;8.98;;;6.35;;
69900;SDS011;57183;50.930;5.406;2023-01-28T01:16:05;10.55;;;7.40;;
69900;SDS011;57183;50.930;5.406;2023-01-28T01:18:37;10.75;;;7.65;;
69900;SDS011;57183;50.930;5.406;2023-01-28T01:21:16;10.05;;;7.72;;
69900;SDS011;57183;50.930;5.406;2023-01-28T01:23:44;11.13;;;8.73;;
69900;SDS011;57183;50.930;5.406;2023-01-28T01:26:10;10.00;;;7.75;;
69900;SDS011;57183;50.930;5.406;2023-01-28T01:28:36;11.18;;;8.43;;
69900;SDS011;57183;50.930;5.406;2023-01-28T01:31:06;11.93;;;8.95;;
69900;SDS011;57183;50.930;5.406;2023-01-28T01:33:34;12.05;;;8.52;;
69900;SDS011;57183;50.930;5.406;2023-01-28T01:36:00;9.98;;;8.23;;
69900;SDS011;57183;50.930;5.406;2023-01-28T01:38:27;12.07;;;8.75;;
69900;SDS011;57183;50.930;5.406;2023-01-28T01:40:56;11.48;;;8.73;;
69900;SDS011;57183;50.930;5.406;2023-01-28T01:43:23;10.32;;;7.80;;
69900;SDS011;57183;50.930;5.406;2023-01-28T01:45:51;13.63;;;8.82;;
69900;SDS011;57183;50.930;5.406;2023-01-28T01:51:18;14.10;;;9.35;;
69900;SDS011;57183;50.930;5.406;2023-01-28T01:53:50;13.07;;;8.65;;
69900;SDS011;57183;50.930;5.406;2023-01-28T01:56:20;12.30;;;9.10;;
69900;SDS011;57183;50.930;5.406;2023-01-28T01:58:50;11.50;;;8.10;;
69900;SDS011;57183;50.930;5.406;2023-01-28T02:01:19;11.93;;;8.65;;
69900;SDS011;57183;50.930;5.406;2023-01-28T02:04:03;11.55;;;8.23;;
69900;SDS011;57183;50.930;5.406;2023-01-28T02:06:33;11.52;;;8.15;;
69900;SDS011;57183;50.930;5.406;2023-01-28T02:09:00;11.25;;;8.52;;
69900;SDS011;57183;50.930;5.406;2023-01-28T02:11:28;13.38;;;9.45;;
69900;SDS011;57183;50.930;5.406;2023-01-28T02:13:57;14.00;;;8.57;;
69900;SDS011;57183;50.930;5.406;2023-01-28T02:16:26;13.30;;;8.98;;
69900;SDS011;57183;50.930;5.406;2023-01-28T02:18:53;11.68;;;8.70;;
69900;SDS011;57183;50.930;5.406;2023-01-28T02:26:39;11.35;;;8.23;;
69900;SDS011;57183;50.930;5.406;2023-01-28T02:35:23;9.13;;;7.53;;
69900;SDS011;57183;50.930;5.406;2023-01-28T02:38:12;12.20;;;8.65;;
69900;SDS011;57183;50.930;5.406;2023-01-28T02:40:45;11.90;;;7.90;;
69900;SDS011;57183;50.930;5.406;2023-01-28T02:45:55;11.07;;;8.52;;
69900;SDS011;57183;50.930;5.406;2023-01-28T02:48:39;15.52;;;9.60;;
69900;SDS011;57183;50.930;5.406;2023-01-28T02:51:18;14.23;;;9.65;;
69900;SDS011;57183;50.930;5.406;2023-01-28T02:54:17;12.95;;;8.85;;
69900;SDS011;57183;50.930;5.406;2023-01-28T02:56:56;13.45;;;8.98;;
69900;SDS011;57183;50.930;5.406;2023-01-28T03:02:23;11.10;;;8.50;;
69900;SDS011;57183;50.930;5.406;2023-01-28T03:07:28;13.50;;;9.07;;
69900;SDS011;57183;50.930;5.406;2023-01-28T03:09:56;13.18;;;7.78;;
69900;SDS011;57183;50.930;5.406;2023-01-28T03:12:28;12.27;;;8.13;;
69900;SDS011;57183;50.930;5.406;2023-01-28T03:15:14;14.52;;;8.65;;
69900;SDS011;57183;50.930;5.406;2023-01-28T03:20:50;10.88;;;7.78;;
69900;SDS011;57183;50.930;5.406;2023-01-28T03:23:58;15.45;;;9.30;;
69900;SDS011;57183;50.930;5.406;2023-01-28T03:26:53;13.77;;;8.98;;
69900;SDS011;57183;50.930;5.406;2023-01-28T03:29:52;14.30;;;9.65;;
69900;SDS011;57183;50.930;5.406;2023-01-28T03:32:41;12.75;;;8.68;;
69900;SDS011;57183;50.930;5.406;2023-01-28T03:35:27;11.25;;;7.65;;
69900;SDS011;57183;50.930;5.406;2023-01-28T03:38:15;13.85;;;8.45;;
69900;SDS011;57183;50.930;5.406;2023-01-28T03:40:48;11.50;;;7.68;;
69900;SDS011;57183;50.930;5.406;2023-01-28T03:43:20;14.45;;;9.13;;
69900;SDS011;57183;50.930;5.406;2023-01-28T03:45:46;15.23;;;9.77;;
69900;SDS011;57183;50.930;5.406;2023-01-28T03:48:18;12.68;;;8.82;;
69900;SDS011;57183;50.930;5.406;2023-01-28T03:50:45;13.52;;;9.13;;
69900;SDS011;57183;50.930;5.406;2023-01-28T03:53:12;14.02;;;8.77;;
69900;SDS011;57183;50.930;5.406;2023-01-28T03:55:40;12.75;;;8.18;;
69900;SDS011;57183;50.930;5.406;2023-01-28T03:58:06;12.35;;;8.48;;
69900;SDS011;57183;50.930;5.406;2023-01-28T04:00:32;13.80;;;9.10;;
69900;SDS011;57183;50.930;5.406;2023-01-28T04:03:02;15.57;;;9.55;;
69900;SDS011;57183;50.930;5.406;2023-01-28T04:05:28;12.85;;;9.02;;
69900;SDS011;57183;50.930;5.406;2023-01-28T04:07:54;11.27;;;7.72;;
69900;SDS011;57183;50.930;5.406;2023-01-28T04:10:20;14.32;;;9.30;;
69900;SDS011;57183;50.930;5.406;2023-01-28T04:12:46;12.45;;;9.30;;
69900;SDS011;57183;50.930;5.406;2023-01-28T04:15:14;13.32;;;8.60;;
69900;SDS011;57183;50.930;5.406;2023-01-28T04:17:44;15.68;;;9.77;;
69900;SDS011;57183;50.930;5.406;2023-01-28T04:20:10;10.73;;;7.07;;
69900;SDS011;57183;50.930;5.406;2023-01-28T04:22:37;17.50;;;9.95;;
69900;SDS011;57183;50.930;5.406;2023-01-28T04:25:02;12.95;;;9.07;;
69900;SDS011;57183;50.930;5.406;2023-01-28T04:27:28;13.80;;;9.68;;
69900;SDS011;57183;50.930;5.406;2023-01-28T04:29:54;12.10;;;8.73;;
69900;SDS011;57183;50.930;5.406;2023-01-28T04:32:20;14.38;;;9.77;;
69900;SDS011;57183;50.930;5.406;2023-01-28T04:34:45;13.80;;;9.23;;
69900;SDS011;57183;50.930;5.406;2023-01-28T04:37:11;12.85;;;9.38;;
69900;SDS011;57183;50.930;5.406;2023-01-28T04:39:37;12.10;;;7.88;;
69900;SDS011;57183;50.930;5.406;2023-01-28T04:42:02;13.55;;;9.73;;
69900;SDS011;57183;50.930;5.406;2023-01-28T04:44:28;13.63;;;8.95;;
69900;SDS011;57183;50.930;5.406;2023-01-28T04:46:54;14.73;;;9.40;;
69900;SDS011;57183;50.930;5.406;2023-01-28T04:49:19;15.32;;;10.10;;
69900;SDS011;57183;50.930;5.406;2023-01-28T04:51:45;14.38;;;9.73;;
69900;SDS011;57183;50.930;5.406;2023-01-28T04:54:10;13.20;;;8.43;;
69900;SDS011;57183;50.930;5.406;2023-01-28T04:56:36;13.77;;;9.13;;
69900;SDS011;57183;50.930;5.406;2023-01-28T04:59:02;15.13;;;9.50;;
69900;SDS011;57183;50.930;5.406;2023-01-28T05:01:28;14.38;;;9.30;;
69900;SDS011;57183;50.930;5.406;2023-01-28T05:03:54;13.30;;;9.32;;
69900;SDS011;57183;50.930;5.406;2023-01-28T05:06:19;14.82;;;9.40;;
69900;SDS011;57183;50.930;5.406;2023-01-28T05:08:45;15.10;;;9.15;;
69900;SDS011;57183;50.930;5.406;2023-01-28T05:11:11;13.65;;;9.35;;
69900;SDS011;57183;50.930;5.406;2023-01-28T05:13:37;13.25;;;8.57;;
69900;SDS011;57183;50.930;5.406;2023-01-28T05:16:04;15.07;;;10.00;;
69900;SDS011;57183;50.930;5.406;2023-01-28T05:18:30;24.52;;;10.55;;
69900;SDS011;57183;50.930;5.406;2023-01-28T05:20:55;15.52;;;10.07;;
69900;SDS011;57183;50.930;5.406;2023-01-28T05:23:21;12.70;;;9.15;;
69900;SDS011;57183;50.930;5.406;2023-01-28T05:25:47;11.85;;;8.30;;
69900;SDS011;57183;50.930;5.406;2023-01-28T05:28:13;12.50;;;8.77;;
69900;SDS011;57183;50.930;5.406;2023-01-28T05:30:39;14.10;;;10.43;;
69900;SDS011;57183;50.930;5.406;2023-01-28T05:33:05;13.40;;;9.20;;
69900;SDS011;57183;50.930;5.406;2023-01-28T05:35:31;13.82;;;9.27;;
69900;SDS011;57183;50.930;5.406;2023-01-28T05:37:56;11.15;;;8.65;;
69900;SDS011;57183;50.930;5.406;2023-01-28T05:40:22;13.00;;;8.82;;
69900;SDS011;57183;50.930;5.406;2023-01-28T05:42:48;13.23;;;9.05;;
69900;SDS011;57183;50.930;5.406;2023-01-28T05:45:13;14.70;;;9.43;;
69900;SDS011;57183;50.930;5.406;2023-01-28T05:47:39;13.30;;;9.00;;
69900;SDS011;57183;50.930;5.406;2023-01-28T05:50:05;12.43;;;8.73;;
69900;SDS011;57183;50.930;5.406;2023-01-28T05:52:31;9.27;;;7.22;;
69900;SDS011;57183;50.930;5.406;2023-01-28T05:54:57;12.32;;;8.32;;
69900;SDS011;57183;50.930;5.406;2023-01-28T05:57:23;11.73;;;8.90;;
69900;SDS011;57183;50.930;5.406;2023-01-28T05:59:49;13.95;;;9.25;;
69900;SDS011;57183;50.930;5.406;2023-01-28T06:02:14;12.95;;;8.68;;
69900;SDS011;57183;50.930;5.406;2023-01-28T06:04:40;11.73;;;8.75;;
69900;SDS011;57183;50.930;5.406;2023-01-28T06:07:06;10.70;;;7.57;;
69900;SDS011;57183;50.930;5.406;2023-01-28T06:09:31;11.13;;;7.75;;
69900;SDS011;57183;50.930;5.406;2023-01-28T06:11:57;12.65;;;8.95;;
69900;SDS011;57183;50.930;5.406;2023-01-28T06:14:23;14.25;;;9.13;;
69900;SDS011;57183;50.930;5.406;2023-01-28T06:16:48;13.38;;;9.43;;
69900;SDS011;57183;50.930;5.406;2023-01-28T06:19:16;13.18;;;8.75;;
69900;SDS011;57183;50.930;5.406;2023-01-28T06:21:41;13.57;;;8.48;;
69900;SDS011;57183;50.930;5.406;2023-01-28T06:24:07;12.13;;;8.85;;
69900;SDS011;57183;50.930;5.406;2023-01-28T06:26:33;14.15;;;9.05;;
69900;SDS011;57183;50.930;5.406;2023-01-28T06:28:59;13.52;;;8.65;;
69900;SDS011;57183;50.930;5.406;2023-01-28T06:31:25;15.35;;;8.93;;
69900;SDS011;57183;50.930;5.406;2023-01-28T06:33:50;12.60;;;8.13;;
69900;SDS011;57183;50.930;5.406;2023-01-28T06:36:16;15.40;;;9.40;;
69900;SDS011;57183;50.930;5.406;2023-01-28T06:38:41;14.05;;;8.90;;
69900;SDS011;57183;50.930;5.406;2023-01-28T06:41:07;16.13;;;9.18;;
69900;SDS011;57183;50.930;5.406;2023-01-28T06:43:33;15.00;;;9.18;;
69900;SDS011;57183;50.930;5.406;2023-01-28T06:45:59;11.35;;;7.55;;
69900;SDS011;57183;50.930;5.406;2023-01-28T06:48:25;13.77;;;8.57;;
69900;SDS011;57183;50.930;5.406;2023-01-28T06:50:51;16.13;;;9.15;;
69900;SDS011;57183;50.930;5.406;2023-01-28T06:53:17;10.85;;;7.60;;
69900;SDS011;57183;50.930;5.406;2023-01-28T06:55:43;15.27;;;9.90;;
69900;SDS011;57183;50.930;5.406;2023-01-28T06:58:09;14.70;;;9.40;;
69900;SDS011;57183;50.930;5.406;2023-01-28T07:00:35;13.75;;;9.48;;
69900;SDS011;57183;50.930;5.406;2023-01-28T07:03:01;14.55;;;9.43;;
69900;SDS011;57183;50.930;5.406;2023-01-28T07:05:28;14.35;;;8.98;;
69900;SDS011;57183;50.930;5.406;2023-01-28T07:07:53;16.17;;;9.60;;
69900;SDS011;57183;50.930;5.406;2023-01-28T07:10:19;15.98;;;9.60;;
69900;SDS011;57183;50.930;5.406;2023-01-28T07:12:45;16.13;;;9.75;;
69900;SDS011;57183;50.930;5.406;2023-01-28T07:15:11;16.95;;;9.35;;
69900;SDS011;57183;50.930;5.406;2023-01-28T07:17:38;16.55;;;9.15;;
69900;SDS011;57183;50.930;5.406;2023-01-28T07:20:05;16.75;;;9.48;;
69900;SDS011;57183;50.930;5.406;2023-01-28T07:22:32;15.63;;;9.15;;
69900;SDS011;57183;50.930;5.406;2023-01-28T07:24:57;15.45;;;8.70;;
69900;SDS011;57183;50.930;5.406;2023-01-28T07:27:25;14.30;;;9.48;;
69900;SDS011;57183;50.930;5.406;2023-01-28T07:29:51;14.30;;;8.98;;
69900;SDS011;57183;50.930;5.406;2023-01-28T07:32:17;18.00;;;10.52;;
69900;SDS011;57183;50.930;5.406;2023-01-28T07:34:42;15.38;;;8.85;;
69900;SDS011;57183;50.930;5.406;2023-01-28T07:37:08;15.20;;;9.65;;
69900;SDS011;57183;50.930;5.406;2023-01-28T07:39:34;17.48;;;10.02;;
69900;SDS011;57183;50.930;5.406;2023-01-28T07:42:00;17.17;;;10.40;;
69900;SDS011;57183;50.930;5.406;2023-01-28T07:44:26;17.27;;;9.93;;
69900;SDS011;57183;50.930;5.406;2023-01-28T07:46:52;14.52;;;9.20;;
69900;SDS011;57183;50.930;5.406;2023-01-28T07:49:19;15.82;;;10.02;;
69900;SDS011;57183;50.930;5.406;2023-01-28T07:51:44;15.27;;;9.73;;
69900;SDS011;57183;50.930;5.406;2023-01-28T07:54:11;17.05;;;10.20;;
69900;SDS011;57183;50.930;5.406;2023-01-28T07:56:37;19.35;;;10.40;;
69900;SDS011;57183;50.930;5.406;2023-01-28T07:59:02;14.65;;;8.88;;
69900;SDS011;57183;50.930;5.406;2023-01-28T08:01:28;18.98;;;10.05;;
69900;SDS011;57183;50.930;5.406;2023-01-28T08:03:54;20.30;;;10.88;;
69900;SDS011;57183;50.930;5.406;2023-01-28T08:06:20;18.73;;;11.68;;
69900;SDS011;57183;50.930;5.406;2023-01-28T08:08:48;15.70;;;9.90;;
69900;SDS011;57183;50.930;5.406;2023-01-28T08:11:14;15.68;;;9.77;;
69900;SDS011;57183;50.930;5.406;2023-01-28T08:13:39;16.35;;;9.98;;
69900;SDS011;57183;50.930;5.406;2023-01-28T08:16:05;19.13;;;10.65;;
69900;SDS011;57183;50.930;5.406;2023-01-28T08:18:31;16.40;;;9.43;;
69900;SDS011;57183;50.930;5.406;2023-01-28T08:20:57;15.23;;;9.65;;
69900;SDS011;57183;50.930;5.406;2023-01-28T08:23:24;18.48;;;10.77;;
69900;SDS011;57183;50.930;5.406;2023-01-28T08:25:51;16.30;;;10.77;;
69900;SDS011;57183;50.930;5.406;2023-01-28T08:28:18;15.98;;;10.07;;
69900;SDS011;57183;50.930;5.406;2023-01-28T08:30:45;17.77;;;10.02;;
69900;SDS011;57183;50.930;5.406;2023-01-28T08:33:11;18.40;;;10.90;;
69900;SDS011;57183;50.930;5.406;2023-01-28T08:35:41;17.88;;;11.18;;
69900;SDS011;57183;50.930;5.406;2023-01-28T08:38:07;17.10;;;10.75;;
69900;SDS011;57183;50.930;5.406;2023-01-28T08:40:35;16.77;;;10.48;;
69900;SDS011;57183;50.930;5.406;2023-01-28T08:43:01;15.50;;;9.77;;
69900;SDS011;57183;50.930;5.406;2023-01-28T08:45:28;16.73;;;10.13;;
69900;SDS011;57183;50.930;5.406;2023-01-28T08:47:55;17.17;;;9.48;;
69900;SDS011;57183;50.930;5.406;2023-01-28T08:50:25;16.23;;;9.80;;
69900;SDS011;57183;50.930;5.406;2023-01-28T08:52:57;15.10;;;8.90;;
69900;SDS011;57183;50.930;5.406;2023-01-28T08:55:25;16.50;;;10.68;;
69900;SDS011;57183;50.930;5.406;2023-01-28T08:57:52;15.65;;;10.13;;
69900;SDS011;57183;50.930;5.406;2023-01-28T09:00:18;17.83;;;9.80;;
69900;SDS011;57183;50.930;5.406;2023-01-28T09:02:45;18.30;;;11.30;;
69900;SDS011;57183;50.930;5.406;2023-01-28T09:05:11;18.65;;;10.77;;
69900;SDS011;57183;50.930;5.406;2023-01-28T09:07:37;17.90;;;10.25;;
69900;SDS011;57183;50.930;5.406;2023-01-28T09:10:03;18.77;;;11.18;;
69900;SDS011;57183;50.930;5.406;2023-01-28T09:12:30;15.43;;;9.93;;
69900;SDS011;57183;50.930;5.406;2023-01-28T09:14:56;17.50;;;10.35;;
69900;SDS011;57183;50.930;5.406;2023-01-28T09:17:22;14.20;;;9.75;;
69900;SDS011;57183;50.930;5.406;2023-01-28T09:19:48;16.23;;;10.27;;
69900;SDS011;57183;50.930;5.406;2023-01-28T09:22:14;14.82;;;9.43;;
69900;SDS011;57183;50.930;5.406;2023-01-28T09:24:39;18.35;;;10.10;;
69900;SDS011;57183;50.930;5.406;2023-01-28T09:27:05;17.90;;;10.60;;
69900;SDS011;57183;50.930;5.406;2023-01-28T09:29:32;18.52;;;10.38;;
69900;SDS011;57183;50.930;5.406;2023-01-28T09:31:59;15.45;;;9.52;;
69900;SDS011;57183;50.930;5.406;2023-01-28T09:34:24;16.83;;;9.60;;
69900;SDS011;57183;50.930;5.406;2023-01-28T09:36:50;15.50;;;9.82;;
69900;SDS011;57183;50.930;5.406;2023-01-28T09:39:16;16.25;;;10.63;;
69900;SDS011;57183;50.930;5.406;2023-01-28T09:44:40;15.60;;;10.15;;
69900;SDS011;57183;50.930;5.406;2023-01-28T09:47:15;14.88;;;9.85;;
69900;SDS011;57183;50.930;5.406;2023-01-28T09:49:54;15.73;;;9.93;;
69900;SDS011;57183;50.930;5.406;2023-01-28T09:52:24;13.43;;;8.57;;
69900;SDS011;57183;50.930;5.406;2023-01-28T09:57:27;13.48;;;8.65;;
69900;SDS011;57183;50.930;5.406;2023-01-28T10:00:14;13.40;;;8.63;;
69900;SDS011;57183;50.930;5.406;2023-01-28T10:02:54;12.77;;;8.63;;
69900;SDS011;57183;50.930;5.406;2023-01-28T10:21:06;10.75;;;7.75;;
69900;SDS011;57183;50.930;5.406;2023-01-28T10:23:47;7.88;;;6.70;;
69900;SDS011;57183;50.930;5.406;2023-01-28T10:26:25;11.23;;;7.63;;
69900;SDS011;57183;50.930;5.406;2023-01-28T10:29:08;9.63;;;7.43;;
69900;SDS011;57183;50.930;5.406;2023-01-28T10:31:43;7.80;;;6.55;;
69900;SDS011;57183;50.930;5.406;2023-01-28T10:34:16;10.00;;;7.15;;
69900;SDS011;57183;50.930;5.406;2023-01-28T10:36:42;12.57;;;7.75;;
69900;SDS011;57183;50.930;5.406;2023-01-28T10:39:09;11.98;;;8.07;;
69900;SDS011;57183;50.930;5.406;2023-01-28T10:41:38;11.05;;;7.80;;
69900;SDS011;57183;50.930;5.406;2023-01-28T10:44:04;9.73;;;7.07;;
69900;SDS011;57183;50.930;5.406;2023-01-28T10:46:31;9.85;;;7.40;;
69900;SDS011;57183;50.930;5.406;2023-01-28T10:49:01;9.50;;;7.43;;
69900;SDS011;57183;50.930;5.406;2023-01-28T10:51:39;11.32;;;7.57;;
69900;SDS011;57183;50.930;5.406;2023-01-28T10:56:44;12.98;;;7.95;;
69900;SDS011;57183;50.930;5.406;2023-01-28T11:01:55;10.45;;;7.30;;
69900;SDS011;57183;50.930;5.406;2023-01-28T11:04:43;9.57;;;7.93;;
69900;SDS011;57183;50.930;5.406;2023-01-28T11:07:19;8.93;;;6.45;;
69900;SDS011;57183;50.930;5.406;2023-01-28T11:09:46;9.70;;;8.00;;
69900;SDS011;57183;50.930;5.406;2023-01-28T11:14:51;11.20;;;7.28;;
69900;SDS011;57183;50.930;5.406;2023-01-28T11:17:19;8.45;;;6.82;;
69900;SDS011;57183;50.930;5.406;2023-01-28T11:19:48;10.35;;;7.90;;
69900;SDS011;57183;50.930;5.406;2023-01-28T11:22:30;11.85;;;8.40;;
69900;SDS011;57183;50.930;5.406;2023-01-28T11:25:00;11.90;;;8.20;;
69900;SDS011;57183;50.930;5.406;2023-01-28T11:27:30;10.77;;;7.63;;
69900;SDS011;57183;50.930;5.406;2023-01-28T11:29:57;10.77;;;7.93;;
69900;SDS011;57183;50.930;5.406;2023-01-28T11:32:27;10.80;;;7.75;;
69900;SDS011;57183;50.930;5.406;2023-01-28T11:34:55;11.93;;;8.02;;
69900;SDS011;57183;50.930;5.406;2023-01-28T11:37:21;11.20;;;8.00;;
69900;SDS011;57183;50.930;5.406;2023-01-28T11:39:59;12.20;;;8.23;;
69900;SDS011;57183;50.930;5.406;2023-01-28T11:42:38;9.48;;;6.78;;
69900;SDS011;57183;50.930;5.406;2023-01-28T11:45:04;11.85;;;7.60;;
69900;SDS011;57183;50.930;5.406;2023-01-28T11:47:46;18.67;;;9.05;;
69900;SDS011;57183;50.930;5.406;2023-01-28T11:50:16;9.07;;;7.25;;
69900;SDS011;57183;50.930;5.406;2023-01-28T11:52:57;10.52;;;7.90;;
69900;SDS011;57183;50.930;5.406;2023-01-28T12:01:09;12.15;;;8.43;;
69900;SDS011;57183;50.930;5.406;2023-01-28T12:09:30;9.98;;;7.65;;
69900;SDS011;57183;50.930;5.406;2023-01-28T12:15:08;12.82;;;7.20;;
69900;SDS011;57183;50.930;5.406;2023-01-28T12:20:33;11.07;;;7.60;;
69900;SDS011;57183;50.930;5.406;2023-01-28T12:28:59;13.23;;;6.40;;
69900;SDS011;57183;50.930;5.406;2023-01-28T12:31:36;10.07;;;7.22;;
69900;SDS011;57183;50.930;5.406;2023-01-28T12:37:06;9.57;;;7.95;;
69900;SDS011;57183;50.930;5.406;2023-01-28T12:39:56;7.93;;;5.93;;
69900;SDS011;57183;50.930;5.406;2023-01-28T12:42:44;11.25;;;8.13;;
69900;SDS011;57183;50.930;5.406;2023-01-28T12:45:23;10.40;;;7.18;;
69900;SDS011;57183;50.930;5.406;2023-01-28T12:48:01;10.57;;;7.65;;
69900;SDS011;57183;50.930;5.406;2023-01-28T12:50:32;12.52;;;7.75;;
69900;SDS011;57183;50.930;5.406;2023-01-28T12:53:16;10.68;;;7.22;;
69900;SDS011;57183;50.930;5.406;2023-01-28T12:55:57;11.75;;;8.00;;
69900;SDS011;57183;50.930;5.406;2023-01-28T12:58:51;10.73;;;7.75;;
69900;SDS011;57183;50.930;5.406;2023-01-28T13:01:18;12.05;;;7.45;;
69900;SDS011;57183;50.930;5.406;2023-01-28T13:04:00;10.68;;;7.53;;
69900;SDS011;57183;50.930;5.406;2023-01-28T13:06:36;9.70;;;7.90;;
69900;SDS011;57183;50.930;5.406;2023-01-28T13:09:17;9.57;;;7.53;;
69900;SDS011;57183;50.930;5.406;2023-01-28T13:11:46;11.18;;;7.68;;
69900;SDS011;57183;50.930;5.406;2023-01-28T13:14:13;9.68;;;7.55;;
69900;SDS011;57183;50.930;5.406;2023-01-28T13:16:40;11.43;;;8.32;;
69900;SDS011;57183;50.930;5.406;2023-01-28T13:19:07;11.25;;;8.48;;
69900;SDS011;57183;50.930;5.406;2023-01-28T13:21:42;10.75;;;7.57;;
69900;SDS011;57183;50.930;5.406;2023-01-28T13:26:44;13.35;;;9.15;;
69900;SDS011;57183;50.930;5.406;2023-01-28T13:29:27;9.88;;;7.85;;
69900;SDS011;57183;50.930;5.406;2023-01-28T13:31:56;12.98;;;7.53;;
69900;SDS011;57183;50.930;5.406;2023-01-28T13:34:42;13.50;;;9.50;;
69900;SDS011;57183;50.930;5.406;2023-01-28T13:42:38;11.77;;;8.55;;
69900;SDS011;57183;50.930;5.406;2023-01-28T13:47:41;11.82;;;8.20;;
69900;SDS011;57183;50.930;5.406;2023-01-28T13:50:11;11.27;;;8.00;;
69900;SDS011;57183;50.930;5.406;2023-01-28T13:55:33;13.05;;;9.05;;
69900;SDS011;57183;50.930;5.406;2023-01-28T14:17:51;10.05;;;7.47;;
69900;SDS011;57183;50.930;5.406;2023-01-28T14:20:19;10.73;;;7.63;;
69900;SDS011;57183;50.930;5.406;2023-01-28T14:23:00;17.55;;;9.57;;
69900;SDS011;57183;50.930;5.406;2023-01-28T14:28:11;12.82;;;8.68;;
69900;SDS011;57183;50.930;5.406;2023-01-28T14:31:10;11.18;;;8.02;;
69900;SDS011;57183;50.930;5.406;2023-01-28T14:36:10;10.07;;;7.40;;
69900;SDS011;57183;50.930;5.406;2023-01-28T14:38:40;10.90;;;7.88;;
69900;SDS011;57183;50.930;5.406;2023-01-28T14:41:07;13.10;;;9.60;;
69900;SDS011;57183;50.930;5.406;2023-01-28T14:43:42;13.10;;;8.77;;
69900;SDS011;57183;50.930;5.406;2023-01-28T14:46:11;13.40;;;8.73;;
69900;SDS011;57183;50.930;5.406;2023-01-28T14:49:03;13.90;;;9.35;;
69900;SDS011;57183;50.930;5.406;2023-01-28T15:00:17;11.88;;;8.88;;
69900;SDS011;57183;50.930;5.406;2023-01-28T15:02:45;13.23;;;8.82;;
69900;SDS011;57183;50.930;5.406;2023-01-28T15:05:21;15.05;;;9.85;;
69900;SDS011;57183;50.930;5.406;2023-01-28T15:07:51;14.60;;;8.85;;
69900;SDS011;57183;50.930;5.406;2023-01-28T15:13:07;13.63;;;8.85;;
69900;SDS011;57183;50.930;5.406;2023-01-28T15:15:51;13.30;;;8.25;;
69900;SDS011;57183;50.930;5.406;2023-01-28T15:18:39;12.05;;;8.63;;
69900;SDS011;57183;50.930;5.406;2023-01-28T15:21:07;12.63;;;8.90;;
69900;SDS011;57183;50.930;5.406;2023-01-28T15:23:34;15.35;;;9.38;;
69900;SDS011;57183;50.930;5.406;2023-01-28T15:26:05;12.93;;;8.68;;
69900;SDS011;57183;50.930;5.406;2023-01-28T15:28:34;13.32;;;9.10;;
69900;SDS011;57183;50.930;5.406;2023-01-28T15:31:03;12.18;;;8.05;;
69900;SDS011;57183;50.930;5.406;2023-01-28T15:33:29;12.32;;;8.70;;
69900;SDS011;57183;50.930;5.406;2023-01-28T15:35:56;13.48;;;9.25;;
69900;SDS011;57183;50.930;5.406;2023-01-28T15:38:23;12.13;;;8.35;;
69900;SDS011;57183;50.930;5.406;2023-01-28T15:40:55;15.70;;;9.93;;
69900;SDS011;57183;50.930;5.406;2023-01-28T15:43:27;13.75;;;8.98;;
69900;SDS011;57183;50.930;5.406;2023-01-28T15:45:56;15.18;;;9.75;;
69900;SDS011;57183;50.930;5.406;2023-01-28T15:48:23;13.93;;;8.55;;
69900;SDS011;57183;50.930;5.406;2023-01-28T15:51:04;14.57;;;9.38;;
69900;SDS011;57183;50.930;5.406;2023-01-28T15:53:36;15.75;;;9.38;;
69900;SDS011;57183;50.930;5.406;2023-01-28T15:56:09;14.02;;;9.68;;
69900;SDS011;57183;50.930;5.406;2023-01-28T15:58:36;16.38;;;9.00;;
69900;SDS011;57183;50.930;5.406;2023-01-28T16:03:39;16.30;;;10.40;;
69900;SDS011;57183;50.930;5.406;2023-01-28T16:06:10;12.65;;;8.25;;
69900;SDS011;57183;50.930;5.406;2023-01-28T16:08:46;14.30;;;9.13;;
69900;SDS011;57183;50.930;5.406;2023-01-28T16:11:21;17.63;;;9.75;;
69900;SDS011;57183;50.930;5.406;2023-01-28T16:13:58;15.68;;;9.80;;
69900;SDS011;57183;50.930;5.406;2023-01-28T16:16:33;14.35;;;9.57;;
69900;SDS011;57183;50.930;5.406;2023-01-28T16:19:02;14.15;;;9.90;;
69900;SDS011;57183;50.930;5.406;2023-01-28T16:21:31;16.17;;;9.02;;
69900;SDS011;57183;50.930;5.406;2023-01-28T16:24:05;16.73;;;10.75;;
69900;SDS011;57183;50.930;5.406;2023-01-28T16:26:54;14.68;;;9.20;;
69900;SDS011;57183;50.930;5.406;2023-01-28T16:29:24;18.48;;;9.82;;
69900;SDS011;57183;50.930;5.406;2023-01-28T16:31:50;20.40;;;10.80;;
69900;SDS011;57183;50.930;5.406;2023-01-28T16:34:16;17.35;;;10.80;;
69900;SDS011;57183;50.930;5.406;2023-01-28T16:36:41;15.90;;;9.52;;
69900;SDS011;57183;50.930;5.406;2023-01-28T16:39:07;22.17;;;10.60;;
69900;SDS011;57183;50.930;5.406;2023-01-28T16:41:36;17.92;;;10.90;;
69900;SDS011;57183;50.930;5.406;2023-01-28T16:44:04;17.55;;;11.02;;
69900;SDS011;57183;50.930;5.406;2023-01-28T16:46:31;19.90;;;10.43;;
69900;SDS011;57183;50.930;5.406;2023-01-28T16:49:00;18.42;;;11.27;;
69900;SDS011;57183;50.930;5.406;2023-01-28T16:51:26;23.13;;;10.75;;
69900;SDS011;57183;50.930;5.406;2023-01-28T16:53:52;20.10;;;9.88;;
69900;SDS011;57183;50.930;5.406;2023-01-28T16:56:20;15.70;;;9.77;;
69900;SDS011;57183;50.930;5.406;2023-01-28T16:58:48;16.58;;;9.68;;
69900;SDS011;57183;50.930;5.406;2023-01-28T17:01:13;18.60;;;10.30;;